Time;durP1;ratioP1;P1;durP2;ratioP2;P2;SDS_P1;SDS_P2;PMS_P1;PMS_P2;Temp;Humidity;BMP_temperature;BMP_pressure;BME280_temperature;BME280_humidity;BME280_pressure;Samples;Min_cycle;Max_cycle;Signal;HPM_P1;HPM_P2
2021/10/05 00:01:31;;;;;;;6.38;1.65;;;13.10;99.90;;;;;;5072986;28;46150;-77
2021/10/05 00:03:58;;;;;;;4.90;1.20;;;13.10;99.90;;;;;;5094726;28;38332;-78
2021/10/05 00:06:24;;;;;;;4.18;1.20;;;13.00;99.90;;;;;;5076056;28;39515;-78
2021/10/05 00:08:50;;;;;;;8.48;1.67;;;13.00;99.90;;;;;;5090430;28;38071;-78
2021/10/05 00:11:16;;;;;;;7.65;1.40;;;13.00;99.90;;;;;;5095043;27;38871;-79
2021/10/05 00:13:42;;;;;;;5.80;1.63;;;13.00;99.90;;;;;;5078689;28;39355;-78
2021/10/05 00:16:09;;;;;;;6.15;1.42;;;13.00;99.90;;;;;;5096648;28;38065;-77
2021/10/05 00:18:36;;;;;;;3.65;1.10;;;13.00;99.90;;;;;;5094187;27;36808;-78
2021/10/05 00:21:04;;;;;;;7.70;1.73;;;13.00;99.90;;;;;;5095511;28;38892;-77
2021/10/05 00:23:30;;;;;;;8.30;1.52;;;12.90;99.90;;;;;;5075915;28;39742;-79
2021/10/05 00:25:56;;;;;;;4.32;1.40;;;12.90;99.90;;;;;;5078911;28;37000;-79
2021/10/05 00:28:22;;;;;;;4.85;1.42;;;12.90;99.90;;;;;;5077722;28;38617;-77
2021/10/05 00:30:48;;;;;;;6.50;1.30;;;12.90;99.90;;;;;;5093879;28;40417;-78
2021/10/05 00:33:14;;;;;;;9.80;1.33;;;12.80;99.90;;;;;;5096491;28;39784;-78
2021/10/05 00:35:40;;;;;;;5.50;1.23;;;12.90;99.90;;;;;;5091793;27;38123;-78
2021/10/05 00:38:07;;;;;;;4.72;0.90;;;12.80;99.90;;;;;;5093301;27;37786;-77
2021/10/05 00:40:34;;;;;;;7.47;1.20;;;12.80;99.90;;;;;;5078798;28;40261;-78
2021/10/05 00:43:00;;;;;;;5.97;1.20;;;12.80;99.90;;;;;;5094124;27;38145;-79
2021/10/05 00:45:26;;;;;;;6.10;1.30;;;12.80;99.90;;;;;;5078582;28;38539;-77
2021/10/05 00:47:52;;;;;;;8.80;1.10;;;12.80;99.90;;;;;;5078412;28;38210;-79
2021/10/05 00:50:18;;;;;;;5.20;1.10;;;12.70;99.90;;;;;;5076489;28;40585;-78
2021/10/05 00:52:44;;;;;;;4.97;1.10;;;12.70;99.90;;;;;;5091139;28;36909;-78
2021/10/05 00:55:11;;;;;;;3.97;1.08;;;12.70;99.90;;;;;;5076213;28;37048;-77
2021/10/05 00:57:38;;;;;;;5.50;1.17;;;12.60;99.90;;;;;;5090556;28;37325;-78
2021/10/05 01:00:06;;;;;;;7.55;1.30;;;12.60;99.90;;;;;;5095162;28;38450;-77
2021/10/05 01:02:32;;;;;;;5.03;1.50;;;12.60;99.90;;;;;;5095613;27;38209;-78
2021/10/05 01:04:58;;;;;;;8.70;1.13;;;12.60;99.90;;;;;;5092575;27;39102;-77
2021/10/05 01:07:24;;;;;;;6.32;1.35;;;12.60;99.90;;;;;;5079401;28;37342;-77
2021/10/05 01:09:52;;;;;;;6.15;1.42;;;12.50;99.90;;;;;;5079716;28;39728;-77
2021/10/05 01:12:18;;;;;;;3.03;1.15;;;12.50;99.90;;;;;;5074954;28;36015;-77
2021/10/05 01:14:44;;;;;;;4.10;1.23;;;12.60;99.90;;;;;;5078764;28;38198;-77
2021/10/05 01:17:12;;;;;;;4.68;1.08;;;12.50;99.90;;;;;;5090541;28;38040;-77
2021/10/05 01:19:38;;;;;;;6.43;1.23;;;12.50;99.90;;;;;;5079569;28;40733;-77
2021/10/05 01:22:05;;;;;;;6.43;1.35;;;12.50;99.90;;;;;;5093883;27;37160;-77
2021/10/05 01:24:31;;;;;;;9.10;1.23;;;12.50;99.90;;;;;;5093359;28;38712;-78
2021/10/05 01:26:58;;;;;;;6.25;1.38;;;12.50;99.90;;;;;;5094966;28;38169;-78
2021/10/05 01:29:27;;;;;;;4.55;0.90;;;12.50;99.90;;;;;;5075042;28;39260;-78
2021/10/05 01:31:56;;;;;;;7.22;1.30;;;12.50;99.90;;;;;;5093649;28;38374;-78
2021/10/05 01:34:24;;;;;;;3.15;0.90;;;12.50;99.90;;;;;;5097445;27;39010;-79
2021/10/05 01:36:51;;;;;;;4.90;1.40;;;12.50;99.90;;;;;;5096184;27;37929;-78
2021/10/05 01:39:21;;;;;;;6.53;1.02;;;12.50;99.90;;;;;;5078236;28;39488;-78
2021/10/05 01:41:47;;;;;;;5.60;1.15;;;12.50;99.90;;;;;;5077096;28;38901;-78
2021/10/05 01:44:14;;;;;;;4.00;0.90;;;12.50;99.90;;;;;;5098261;28;37834;-78
2021/10/05 01:46:40;;;;;;;6.40;1.20;;;12.50;99.90;;;;;;5077578;28;36636;-79
2021/10/05 01:49:06;;;;;;;6.03;1.65;;;12.50;99.90;;;;;;5090512;28;38678;-78
2021/10/05 01:51:32;;;;;;;4.15;1.17;;;12.50;99.90;;;;;;5077014;28;38118;-78
2021/10/05 01:53:59;;;;;;;4.95;1.48;;;12.50;99.90;;;;;;5096133;28;37757;-78
2021/10/05 01:56:25;;;;;;;6.07;1.10;;;12.50;99.90;;;;;;5091497;28;37038;-78
2021/10/05 01:58:51;;;;;;;6.60;1.75;;;12.50;99.90;;;;;;5092079;28;39851;-79
2021/10/05 02:01:17;;;;;;;4.45;0.93;;;12.50;99.90;;;;;;5092014;28;39054;-79
2021/10/05 02:03:43;;;;;;;4.82;1.10;;;12.40;99.90;;;;;;5096540;28;38785;-79
2021/10/05 02:06:09;;;;;;;2.50;0.95;;;12.40;99.90;;;;;;5077349;28;38563;-78
2021/10/05 02:08:35;;;;;;;6.60;1.40;;;12.40;99.90;;;;;;5093635;28;39892;-78
2021/10/05 02:11:01;;;;;;;7.03;1.30;;;12.40;99.90;;;;;;5091649;27;38221;-79
2021/10/05 02:13:27;;;;;;;5.55;1.20;;;12.40;99.90;;;;;;5073043;28;47396;-79
2021/10/05 02:15:53;;;;;;;4.47;0.77;;;12.40;99.90;;;;;;5073827;28;37942;-79
2021/10/05 02:18:19;;;;;;;7.15;1.50;;;12.40;99.90;;;;;;5073971;27;40620;-80
2021/10/05 02:20:46;;;;;;;4.00;1.08;;;12.40;99.90;;;;;;5093215;27;38466;-79
2021/10/05 02:23:12;;;;;;;4.82;1.02;;;12.40;99.90;;;;;;5078863;28;38712;-79
2021/10/05 02:25:38;;;;;;;4.53;1.13;;;12.40;99.90;;;;;;5093167;27;38355;-79
2021/10/05 02:28:04;;;;;;;8.23;1.52;;;12.40;99.90;;;;;;5070842;28;39877;-79
2021/10/05 02:30:30;;;;;;;4.40;1.33;;;12.40;99.90;;;;;;5074946;28;37933;-79
2021/10/05 02:32:57;;;;;;;5.78;1.17;;;12.40;99.90;;;;;;5095670;27;40194;-79
2021/10/05 02:35:23;;;;;;;4.50;1.45;;;12.40;99.90;;;;;;5076168;28;38868;-79
2021/10/05 02:37:49;;;;;;;3.78;1.17;;;12.40;99.90;;;;;;5094977;27;39834;-79
2021/10/05 02:40:15;;;;;;;3.00;0.80;;;12.40;99.90;;;;;;5095345;28;38940;-78
2021/10/05 02:42:41;;;;;;;6.82;0.75;;;12.30;99.90;;;;;;5094781;27;39883;-79
2021/10/05 02:45:08;;;;;;;6.05;1.52;;;12.30;99.90;;;;;;5082578;28;38171;-79
2021/10/05 02:47:35;;;;;;;4.07;0.98;;;12.30;99.90;;;;;;5084887;28;38976;-79
2021/10/05 02:50:01;;;;;;;5.20;1.20;;;12.20;99.90;;;;;;5080073;28;39064;-78
2021/10/05 02:52:27;;;;;;;6.28;1.20;;;12.20;99.90;;;;;;5077633;27;38354;-79
2021/10/05 02:54:54;;;;;;;3.72;1.00;;;12.20;99.90;;;;;;5083579;28;39012;-79
2021/10/05 02:57:20;;;;;;;5.22;1.27;;;12.20;99.90;;;;;;5073779;28;39782;-80
2021/10/05 02:59:47;;;;;;;10.55;1.25;;;12.10;99.90;;;;;;5099129;28;39558;-79
2021/10/05 03:02:15;;;;;;;7.32;1.20;;;12.10;99.90;;;;;;5077125;28;39853;-79
2021/10/05 03:04:41;;;;;;;6.20;1.20;;;12.10;99.90;;;;;;5098504;28;37391;-80
2021/10/05 03:07:08;;;;;;;10.73;1.40;;;12.10;99.90;;;;;;5096379;28;38282;-79
2021/10/05 03:09:35;;;;;;;4.18;0.90;;;12.10;99.90;;;;;;5099210;28;38357;-79
2021/10/05 03:12:02;;;;;;;2.90;0.70;;;12.00;99.90;;;;;;5095106;28;36521;-80
2021/10/05 03:14:29;;;;;;;3.20;1.05;;;12.00;99.90;;;;;;5095524;28;46930;-80
2021/10/05 03:16:55;;;;;;;4.93;0.80;;;12.10;99.90;;;;;;5077414;28;39242;-79
2021/10/05 03:19:21;;;;;;;3.00;1.00;;;12.00;99.90;;;;;;5078151;28;39673;-79
2021/10/05 03:21:47;;;;;;;3.67;0.80;;;12.10;99.90;;;;;;5095492;28;38245;-80
2021/10/05 03:24:13;;;;;;;3.88;1.10;;;12.10;99.90;;;;;;5079579;27;38558;-79
2021/10/05 03:26:39;;;;;;;3.97;0.90;;;12.00;99.90;;;;;;5096058;28;38769;-80
2021/10/05 03:29:06;;;;;;;5.70;0.90;;;12.00;99.90;;;;;;5098142;28;38339;-79
2021/10/05 03:31:32;;;;;;;2.25;0.77;;;12.00;99.90;;;;;;5103785;27;38035;-80
2021/10/05 03:33:58;;;;;;;1.50;0.90;;;12.00;99.90;;;;;;5088515;28;37966;-80
2021/10/05 03:36:24;;;;;;;3.75;1.10;;;12.00;99.90;;;;;;5093553;27;39739;-80
2021/10/05 03:38:50;;;;;;;2.88;1.00;;;12.00;99.90;;;;;;5079788;28;39175;-80
2021/10/05 03:41:16;;;;;;;5.80;1.42;;;12.00;99.90;;;;;;5076888;28;38449;-80
2021/10/05 03:43:42;;;;;;;2.78;1.00;;;12.00;99.90;;;;;;5081453;28;38041;-79
2021/10/05 03:46:08;;;;;;;8.18;1.10;;;12.00;99.90;;;;;;5074419;28;40234;-79
2021/10/05 03:48:34;;;;;;;4.40;1.23;;;12.00;99.90;;;;;;5096871;27;39858;-80
2021/10/05 03:51:01;;;;;;;4.18;0.98;;;12.10;99.90;;;;;;5092945;28;37634;-79
2021/10/05 03:53:27;;;;;;;5.75;1.05;;;12.00;99.90;;;;;;5095412;28;47678;-79
2021/10/05 03:55:57;;;;;;;4.50;1.05;;;12.00;99.90;;;;;;5080103;28;39370;-79
2021/10/05 03:58:25;;;;;;;7.63;1.27;;;12.10;99.90;;;;;;5080406;28;39467;-80
2021/10/05 04:00:52;;;;;;;4.57;1.30;;;12.10;99.90;;;;;;5097465;27;37932;-80
2021/10/05 04:03:18;;;;;;;3.08;0.95;;;12.10;99.90;;;;;;5098530;28;37955;-79
2021/10/05 04:05:44;;;;;;;7.45;1.60;;;12.00;99.90;;;;;;5083096;28;39564;-80
2021/10/05 04:08:10;;;;;;;3.40;1.00;;;12.10;99.90;;;;;;5092500;28;40285;-78
2021/10/05 04:10:37;;;;;;;2.50;0.98;;;12.10;99.90;;;;;;5082044;28;38744;-79
2021/10/05 04:13:04;;;;;;;5.25;0.98;;;12.00;99.90;;;;;;5097690;27;36311;-78
2021/10/05 04:15:30;;;;;;;4.85;1.08;;;12.00;99.90;;;;;;5095305;27;38867;-79
2021/10/05 04:17:56;;;;;;;5.72;1.02;;;12.10;99.90;;;;;;5099497;28;39125;-79
2021/10/05 04:20:23;;;;;;;4.30;0.85;;;12.10;99.90;;;;;;5083202;28;38452;-79
2021/10/05 04:22:49;;;;;;;2.70;1.15;;;12.10;99.90;;;;;;5084943;28;38089;-79
2021/10/05 04:25:15;;;;;;;5.80;1.10;;;12.10;99.90;;;;;;5084946;27;39478;-79
2021/10/05 04:27:41;;;;;;;15.35;2.67;;;12.10;99.90;;;;;;5086197;28;39708;-80
2021/10/05 04:30:10;;;;;;;3.80;1.00;;;12.10;99.90;;;;;;5084599;27;38474;-78
2021/10/05 04:32:37;;;;;;;6.90;0.98;;;12.00;99.90;;;;;;5102914;27;36998;-79
2021/10/05 04:35:04;;;;;;;3.28;0.82;;;12.00;99.90;;;;;;5099127;28;38629;-80
2021/10/05 04:37:30;;;;;;;5.35;1.00;;;12.10;99.90;;;;;;5102683;27;49065;-80
2021/10/05 04:39:56;;;;;;;5.35;1.45;;;12.00;99.90;;;;;;5105278;28;38709;-79
2021/10/05 04:42:24;;;;;;;6.78;0.90;;;12.00;99.90;;;;;;5082829;27;38667;-80
2021/10/05 04:44:51;;;;;;;4.93;1.63;;;12.00;99.90;;;;;;5099410;28;40406;-79
2021/10/05 04:47:17;;;;;;;6.03;1.35;;;12.00;99.90;;;;;;5096345;28;39378;-79
2021/10/05 04:49:43;;;;;;;4.43;1.13;;;12.10;99.90;;;;;;5095105;28;37792;-80
2021/10/05 04:52:09;;;;;;;6.63;1.23;;;12.10;99.90;;;;;;5097609;28;37241;-79
2021/10/05 04:54:36;;;;;;;6.90;0.80;;;12.10;99.90;;;;;;5078428;28;39425;-79
2021/10/05 04:57:02;;;;;;;5.13;1.05;;;12.00;99.90;;;;;;5074403;28;38753;-80
2021/10/05 04:59:29;;;;;;;2.92;0.90;;;12.00;99.90;;;;;;5070882;28;47072;-80
2021/10/05 05:01:55;;;;;;;3.25;1.13;;;12.00;99.90;;;;;;5092533;28;37229;-80
2021/10/05 05:04:21;;;;;;;6.75;1.38;;;12.00;99.90;;;;;;5073538;27;39680;-80
2021/10/05 05:06:47;;;;;;;3.50;0.82;;;11.90;99.90;;;;;;5079176;27;39177;-79
2021/10/05 05:09:13;;;;;;;4.95;1.10;;;11.90;99.90;;;;;;5093126;27;39000;-79
2021/10/05 05:11:40;;;;;;;3.58;1.15;;;11.90;99.90;;;;;;5080300;28;38079;-79
2021/10/05 05:14:10;;;;;;;2.15;0.90;;;11.90;99.90;;;;;;5096599;27;38753;-80
2021/10/05 05:16:37;;;;;;;3.50;0.98;;;11.90;99.90;;;;;;5092835;27;38324;-80
2021/10/05 05:19:04;;;;;;;3.83;1.00;;;11.90;99.90;;;;;;5093589;27;39294;-79
2021/10/05 05:21:31;;;;;;;6.20;1.20;;;11.90;99.90;;;;;;5096490;27;37703;-79
2021/10/05 05:23:58;;;;;;;5.32;0.95;;;11.80;99.90;;;;;;5077936;28;40738;-80
2021/10/05 05:26:24;;;;;;;6.55;1.10;;;11.80;99.90;;;;;;5098059;27;38555;-80
2021/10/05 05:28:51;;;;;;;3.35;0.90;;;11.80;99.90;;;;;;5098961;28;38191;-79
2021/10/05 05:31:17;;;;;;;4.72;1.08;;;11.80;99.90;;;;;;5098079;27;36952;-79
2021/10/05 05:33:43;;;;;;;4.65;1.70;;;11.80;99.90;;;;;;5082433;27;39730;-79
2021/10/05 05:36:09;;;;;;;2.45;0.80;;;11.80;99.90;;;;;;5082191;28;40212;-79
2021/10/05 05:38:35;;;;;;;4.82;1.20;;;11.80;99.90;;;;;;5096237;27;37588;-79
2021/10/05 05:41:02;;;;;;;2.92;0.80;;;11.70;99.90;;;;;;5081130;28;37424;-79
2021/10/05 05:43:28;;;;;;;6.90;0.95;;;11.80;99.90;;;;;;5101438;28;38662;-79
2021/10/05 05:45:55;;;;;;;5.53;1.30;;;11.70;99.90;;;;;;5101589;27;38437;-79
2021/10/05 05:48:21;;;;;;;6.45;0.90;;;11.70;99.90;;;;;;5081129;28;38973;-80
2021/10/05 05:50:47;;;;;;;5.82;0.90;;;11.70;99.90;;;;;;5098180;27;37333;-80
2021/10/05 05:53:13;;;;;;;3.97;1.10;;;11.70;99.90;;;;;;5096840;28;39482;-78
2021/10/05 05:55:40;;;;;;;5.53;0.93;;;11.70;99.90;;;;;;5102760;28;39284;-80
2021/10/05 05:58:09;;;;;;;6.53;1.10;;;11.70;99.90;;;;;;5106644;27;37909;-80
2021/10/05 06:00:36;;;;;;;3.75;1.00;;;11.70;99.90;;;;;;5089211;28;37891;-81
2021/10/05 06:03:02;;;;;;;3.35;0.85;;;11.60;99.90;;;;;;5102071;27;39091;-81
2021/10/05 06:05:28;;;;;;;5.05;1.00;;;11.60;99.90;;;;;;5091116;27;40362;-81
2021/10/05 06:07:54;;;;;;;8.32;1.95;;;11.60;99.90;;;;;;5110041;27;38052;-80
2021/10/05 06:10:31;;;;;;;4.13;1.15;;;11.70;99.90;;;;;;5102495;28;36989;-82
2021/10/05 06:12:57;;;;;;;5.50;1.25;;;11.70;99.90;;;;;;5120951;27;39304;-81
2021/10/05 06:15:24;;;;;;;3.58;1.30;;;11.70;99.90;;;;;;5091735;28;38912;-81
2021/10/05 06:17:50;;;;;;;2.92;0.98;;;11.70;99.90;;;;;;5091436;27;36889;-81
2021/10/05 06:20:20;;;;;;;3.58;1.00;;;11.70;99.90;;;;;;5080853;28;37914;-80
2021/10/05 06:22:47;;;;;;;3.53;1.25;;;11.70;99.90;;;;;;5101214;27;38491;-80
2021/10/05 06:25:16;;;;;;;4.18;1.00;;;11.80;99.90;;;;;;5086624;28;41257;-80
2021/10/05 06:27:43;;;;;;;2.58;1.00;;;11.80;99.90;;;;;;5088918;28;38907;-81
2021/10/05 06:30:12;;;;;;;2.35;0.90;;;11.80;99.90;;;;;;5089197;28;38030;-81
2021/10/05 06:32:38;;;;;;;4.63;1.33;;;11.90;99.90;;;;;;5083579;28;41187;-81
2021/10/05 06:35:05;;;;;;;4.03;0.88;;;11.90;99.90;;;;;;5083317;28;36816;-78
2021/10/05 06:37:31;;;;;;;3.90;1.13;;;11.90;99.90;;;;;;5087246;28;38820;-80
2021/10/05 06:39:57;;;;;;;5.35;1.17;;;11.90;99.90;;;;;;5090837;28;39688;-80
2021/10/05 06:42:23;;;;;;;3.58;1.10;;;11.90;99.90;;;;;;5070172;27;38706;-80
2021/10/05 06:44:49;;;;;;;7.38;1.13;;;11.90;99.90;;;;;;5085559;28;38104;-81
2021/10/05 06:47:15;;;;;;;5.40;1.33;;;12.00;99.90;;;;;;5090912;27;37731;-80
2021/10/05 06:49:42;;;;;;;3.10;0.93;;;12.10;99.90;;;;;;5106887;28;37523;-81
2021/10/05 06:52:08;;;;;;;3.83;0.93;;;12.10;99.90;;;;;;5091262;27;36733;-81
2021/10/05 06:54:34;;;;;;;4.55;0.98;;;12.20;99.90;;;;;;5101229;28;38201;-82
2021/10/05 06:57:03;;;;;;;1.95;0.90;;;12.20;99.90;;;;;;5117741;27;38443;-82
2021/10/05 06:59:29;;;;;;;3.67;1.08;;;12.30;99.90;;;;;;5102688;28;48188;-80
2021/10/05 07:01:55;;;;;;;4.55;1.33;;;12.30;99.90;;;;;;5114368;28;38996;-81
2021/10/05 07:04:21;;;;;;;5.75;1.13;;;12.40;99.90;;;;;;5094343;28;34883;-81
2021/10/05 07:06:48;;;;;;;7.20;1.60;;;12.40;99.90;;;;;;5097667;27;38017;-81
2021/10/05 07:09:14;;;;;;;7.60;1.35;;;12.40;99.90;;;;;;5092046;27;36573;-81
2021/10/05 07:11:40;;;;;;;2.92;1.02;;;12.50;99.90;;;;;;5107246;27;40097;-81
2021/10/05 07:14:06;;;;;;;1.85;0.90;;;12.50;99.90;;;;;;5097477;28;37379;-81
2021/10/05 07:16:32;;;;;;;5.95;1.30;;;12.50;99.90;;;;;;5094315;28;37240;-81
2021/10/05 07:19:05;;;;;;;7.25;1.30;;;12.60;99.90;;;;;;5106854;27;37307;-83
2021/10/05 07:21:31;;;;;;;5.28;1.45;;;12.60;99.90;;;;;;5116137;27;48632;-81
2021/10/05 07:23:57;;;;;;;8.57;1.58;;;12.70;99.90;;;;;;5116594;27;38625;-82
2021/10/05 07:26:24;;;;;;;1.27;0.90;;;12.70;99.90;;;;;;5096988;28;37868;-81
2021/10/05 07:28:50;;;;;;;4.15;1.20;;;12.80;99.90;;;;;;5096271;28;37481;-81
2021/10/05 07:31:17;;;;;;;5.18;1.05;;;12.80;99.90;;;;;;5085018;28;37933;-81
2021/10/05 07:33:44;;;;;;;6.40;1.33;;;12.90;99.90;;;;;;5115440;28;39539;-81
2021/10/05 07:36:11;;;;;;;6.25;1.10;;;12.90;99.90;;;;;;5092340;28;39289;-82
2021/10/05 07:38:38;;;;;;;2.47;1.00;;;13.00;99.90;;;;;;5105202;28;38011;-82
2021/10/05 07:41:05;;;;;;;9.27;1.30;;;13.00;99.90;;;;;;5099803;28;37584;-82
2021/10/05 07:43:32;;;;;;;4.80;1.10;;;13.10;99.90;;;;;;5123663;27;38285;-80
2021/10/05 07:46:00;;;;;;;3.22;1.10;;;13.10;99.90;;;;;;5093052;28;37666;-79
2021/10/05 07:48:28;;;;;;;2.72;0.98;;;13.10;99.90;;;;;;5103824;28;37235;-79
2021/10/05 07:50:54;;;;;;;3.75;0.82;;;13.10;99.90;;;;;;5092996;28;40612;-80
2021/10/05 07:53:20;;;;;;;3.83;1.17;;;13.20;99.90;;;;;;5094776;28;37215;-80
2021/10/05 07:55:46;;;;;;;4.40;0.95;;;13.30;99.90;;;;;;5110339;22;39146;-77
2021/10/05 07:58:12;;;;;;;6.82;0.98;;;13.40;99.90;;;;;;5090714;28;36993;-76
2021/10/05 08:00:38;;;;;;;4.72;1.35;;;13.50;99.90;;;;;;5082132;28;37854;-77
2021/10/05 08:03:04;;;;;;;5.13;1.15;;;13.50;99.90;;;;;;5092151;27;41082;-78
2021/10/05 08:05:31;;;;;;;5.43;1.05;;;13.60;99.90;;;;;;5084073;28;38851;-77
2021/10/05 08:08:05;;;;;;;7.65;1.70;;;13.60;99.90;;;;;;5063751;28;36244;-77
2021/10/05 08:10:32;;;;;;;7.65;1.42;;;13.70;99.90;;;;;;5110353;27;47016;-78
2021/10/05 08:12:59;;;;;;;6.78;0.82;;;13.80;99.90;;;;;;5100744;28;37979;-78
2021/10/05 08:15:27;;;;;;;5.68;0.95;;;14.00;99.90;;;;;;5085866;27;37055;-78
2021/10/05 08:17:53;;;;;;;4.82;1.58;;;14.20;99.90;;;;;;5098021;27;37490;-78
2021/10/05 08:20:19;;;;;;;5.30;0.93;;;14.30;99.90;;;;;;5071031;28;38918;-78
2021/10/05 08:22:45;;;;;;;5.68;1.42;;;14.40;99.90;;;;;;5082002;28;38239;-77
2021/10/05 08:25:11;;;;;;;5.50;1.02;;;14.40;99.90;;;;;;5099854;27;38111;-79
2021/10/05 08:27:38;;;;;;;8.15;1.23;;;14.40;99.90;;;;;;5069450;28;36509;-79
2021/10/05 08:30:06;;;;;;;4.70;1.20;;;14.40;99.90;;;;;;5090433;27;37354;-78
2021/10/05 08:32:33;;;;;;;5.93;1.13;;;14.40;99.90;;;;;;5079951;28;47266;-79
2021/10/05 08:35:00;;;;;;;6.07;1.00;;;14.30;99.90;;;;;;5103383;27;38162;-79
2021/10/05 08:37:26;;;;;;;2.92;0.95;;;14.30;99.90;;;;;;5082560;28;36247;-80
2021/10/05 08:39:52;;;;;;;4.07;1.05;;;14.30;99.90;;;;;;5084217;28;37318;-81
2021/10/05 08:42:22;;;;;;;5.70;0.90;;;14.20;99.90;;;;;;5088437;28;38841;-81
2021/10/05 08:44:49;;;;;;;5.22;1.33;;;14.20;99.90;;;;;;5082410;28;37772;-80
2021/10/05 08:47:16;;;;;;;3.03;1.45;;;14.20;99.90;;;;;;5091155;28;37551;-80
2021/10/05 08:49:46;;;;;;;5.80;1.23;;;14.20;99.90;;;;;;5065338;28;39175;-79
2021/10/05 08:52:13;;;;;;;8.13;1.23;;;14.30;99.90;;;;;;5073731;28;37603;-80
2021/10/05 08:54:41;;;;;;;4.85;1.13;;;14.30;99.90;;;;;;5097830;27;38235;-79
2021/10/05 08:57:08;;;;;;;3.55;0.93;;;14.40;99.90;;;;;;5089758;28;20148;-79
2021/10/05 08:59:34;;;;;;;2.97;0.88;;;14.40;99.90;;;;;;5072282;28;38453;-78
2021/10/05 09:02:15;;;;;;;1.70;0.75;;;14.50;99.90;;;;;;5075200;28;38116;-78
2021/10/05 09:04:43;;;;;;;4.60;0.90;;;14.50;99.90;;;;;;5072407;28;47120;-80
2021/10/05 09:07:21;;;;;;;3.67;1.10;;;14.50;99.90;;;;;;5078594;28;37484;-80
2021/10/05 09:09:59;;;;;;;6.45;1.17;;;14.50;99.90;;;;;;5079108;28;37534;-79
2021/10/05 09:12:27;;;;;;;3.05;0.93;;;14.50;99.90;;;;;;5082117;28;37577;-79
2021/10/05 09:14:53;;;;;;;3.78;0.98;;;14.60;99.90;;;;;;5102758;22;37722;-78
2021/10/05 09:17:24;;;;;;;6.28;1.00;;;14.70;99.90;;;;;;5063195;28;38419;-79
2021/10/05 09:19:52;;;;;;;6.35;1.08;;;14.70;99.90;;;;;;5083457;28;38447;-80
2021/10/05 09:22:23;;;;;;;4.07;0.90;;;14.80;99.90;;;;;;5059274;28;37417;-79
2021/10/05 09:24:51;;;;;;;4.97;0.70;;;15.00;99.90;;;;;;5069177;28;38613;-79
2021/10/05 09:27:18;;;;;;;2.60;0.75;;;15.00;99.90;;;;;;5063771;28;38868;-79
2021/10/05 09:29:45;;;;;;;6.57;1.08;;;15.10;99.90;;;;;;5066476;28;39615;-79
2021/10/05 09:32:17;;;;;;;4.43;1.00;;;15.20;99.90;;;;;;5061961;28;39265;-79
2021/10/05 09:34:50;;;;;;;5.90;1.20;;;15.30;99.90;;;;;;5083521;27;38366;-78
2021/10/05 09:37:19;;;;;;;5.53;0.95;;;15.40;99.90;;;;;;5079473;28;36686;-79
2021/10/05 09:39:53;;;;;;;4.78;1.05;;;15.50;99.90;;;;;;5065954;28;41183;-79
2021/10/05 09:42:29;;;;;;;3.50;0.98;;;15.50;99.90;;;;;;5080777;28;38840;-78
2021/10/05 09:45:00;;;;;;;5.38;1.13;;;15.60;99.90;;;;;;5069708;28;38856;-79
2021/10/05 09:47:36;;;;;;;7.88;0.70;;;15.70;99.90;;;;;;5063667;28;36282;-79
2021/10/05 09:50:16;;;;;;;3.17;0.82;;;15.70;99.90;;;;;;5082166;28;39408;-78
2021/10/05 09:52:46;;;;;;;5.07;1.00;;;15.80;99.90;;;;;;5073295;28;48857;-79
2021/10/05 09:55:15;;;;;;;6.40;1.13;;;15.80;99.90;;;;;;5090031;27;36546;-79
2021/10/05 09:57:42;;;;;;;2.38;0.80;;;15.70;99.90;;;;;;5061830;28;38742;-79
2021/10/05 10:00:09;;;;;;;3.58;1.05;;;15.70;99.90;;;;;;5081157;28;39057;-78
2021/10/05 10:02:37;;;;;;;3.90;0.90;;;15.70;99.90;;;;;;5086470;28;38432;-79
2021/10/05 10:05:08;;;;;;;5.80;0.90;;;15.50;99.90;;;;;;5066728;28;38989;-78
2021/10/05 10:07:39;;;;;;;6.22;0.98;;;15.50;99.90;;;;;;5081765;28;48462;-78
2021/10/05 10:10:10;;;;;;;4.55;1.20;;;15.50;99.90;;;;;;5081916;28;39812;-78
2021/10/05 10:12:45;;;;;;;6.68;0.90;;;15.50;99.90;;;;;;5082398;28;38293;-79
2021/10/05 10:15:11;;;;;;;5.80;0.95;;;15.50;99.90;;;;;;5062016;28;39812;-79
2021/10/05 10:17:38;;;;;;;5.20;1.20;;;15.50;99.90;;;;;;5078946;28;38587;-79
2021/10/05 10:20:19;;;;;;;4.50;1.25;;;15.40;99.90;;;;;;5062232;28;41017;-78
2021/10/05 10:22:46;;;;;;;3.72;1.00;;;15.40;99.90;;;;;;5064730;28;39139;-79
2021/10/05 10:25:23;;;;;;;8.65;1.45;;;15.30;99.90;;;;;;5065868;28;39576;-79
2021/10/05 10:27:52;;;;;;;6.63;1.40;;;15.20;99.90;;;;;;5079949;28;37640;-79
2021/10/05 10:30:19;;;;;;;5.68;1.05;;;15.30;99.90;;;;;;5066462;28;37822;-79
2021/10/05 10:32:50;;;;;;;8.40;1.15;;;15.30;99.90;;;;;;5065330;28;40063;-79
2021/10/05 10:35:17;;;;;;;4.43;1.38;;;15.20;99.90;;;;;;5081847;28;37861;-79
2021/10/05 10:37:47;;;;;;;8.45;1.73;;;15.20;99.90;;;;;;5065321;28;38122;-79
2021/10/05 10:40:15;;;;;;;3.63;1.02;;;15.20;99.90;;;;;;5078416;28;38444;-78
2021/10/05 10:42:42;;;;;;;6.45;1.40;;;15.20;99.90;;;;;;5083589;28;38356;-78
2021/10/05 10:45:11;;;;;;;4.53;0.98;;;15.20;99.90;;;;;;5078844;28;38018;-78
2021/10/05 10:47:39;;;;;;;5.70;1.42;;;15.10;99.90;;;;;;5072445;28;37989;-79
2021/10/05 10:50:08;;;;;;;5.05;1.20;;;15.00;99.90;;;;;;5067754;28;39512;-78
2021/10/05 10:52:37;;;;;;;3.85;1.20;;;15.00;99.90;;;;;;5084218;28;38616;-78
2021/10/05 10:55:07;;;;;;;7.07;1.55;;;14.90;99.90;;;;;;5062585;28;39334;-78
2021/10/05 10:57:39;;;;;;;4.65;1.02;;;14.80;99.90;;;;;;5076094;28;47969;-79
2021/10/05 11:00:21;;;;;;;5.93;1.40;;;14.70;99.90;;;;;;5063283;28;39725;-78
2021/10/05 11:02:49;;;;;;;4.40;1.38;;;14.60;99.90;;;;;;5076795;28;47179;-78
2021/10/05 11:05:18;;;;;;;6.15;1.45;;;14.50;99.90;;;;;;5063076;28;38673;-78
2021/10/05 11:07:44;;;;;;;4.63;1.65;;;14.50;99.90;;;;;;5085720;27;37146;-79
2021/10/05 11:10:11;;;;;;;6.47;1.42;;;14.30;99.90;;;;;;5063004;28;41555;-78
2021/10/05 11:12:51;;;;;;;5.55;1.52;;;14.30;99.90;;;;;;5064397;28;38742;-79
2021/10/05 11:15:30;;;;;;;9.63;1.58;;;14.20;99.90;;;;;;5079413;28;39079;-79
2021/10/05 11:18:12;;;;;;;3.63;1.45;;;14.20;99.90;;;;;;5083432;28;37762;-80
2021/10/05 11:20:43;;;;;;;8.57;1.90;;;14.10;99.90;;;;;;5068640;28;47455;-79
2021/10/05 11:23:09;;;;;;;8.70;1.70;;;14.00;99.90;;;;;;5064949;28;39101;-80
2021/10/05 11:25:35;;;;;;;4.28;1.55;;;14.00;99.90;;;;;;5084948;28;38621;-81
2021/10/05 11:28:12;;;;;;;3.67;1.42;;;13.90;99.90;;;;;;5069115;28;37837;-79
2021/10/05 11:30:50;;;;;;;5.97;1.83;;;13.90;99.90;;;;;;5083130;28;38790;-80
2021/10/05 11:33:25;;;;;;;4.63;1.40;;;14.00;99.90;;;;;;5067213;28;38934;-80
2021/10/05 11:35:56;;;;;;;5.72;1.48;;;13.90;99.90;;;;;;5067795;28;38626;-79
2021/10/05 11:38:22;;;;;;;7.88;1.65;;;13.90;99.90;;;;;;5072407;28;36328;-79
2021/10/05 11:40:57;;;;;;;8.05;1.30;;;13.80;99.90;;;;;;5081757;28;39983;-81
2021/10/05 11:43:48;;;;;;;3.75;1.27;;;13.80;99.90;;;;;;5068578;28;38784;-80
2021/10/05 11:46:19;;;;;;;4.97;2.05;;;13.80;99.90;;;;;;5091871;28;38739;-81
2021/10/05 11:48:51;;;;;;;5.03;1.38;;;13.80;99.90;;;;;;5085159;28;37379;-81
2021/10/05 11:51:20;;;;;;;5.97;2.63;;;13.90;99.90;;;;;;5080847;28;39044;-80
2021/10/05 11:53:47;;;;;;;6.13;1.65;;;13.90;99.90;;;;;;5083594;28;38850;-80
2021/10/05 11:56:18;;;;;;;6.00;1.58;;;13.80;99.90;;;;;;5083469;28;37109;-79
2021/10/05 11:58:54;;;;;;;4.95;1.60;;;13.80;99.90;;;;;;5063099;28;37947;-80
2021/10/05 12:01:22;;;;;;;4.40;1.27;;;13.80;99.90;;;;;;5072973;28;40011;-80
2021/10/05 12:03:51;;;;;;;9.10;1.50;;;13.80;99.90;;;;;;5064698;28;38861;-80
2021/10/05 12:06:29;;;;;;;5.28;1.48;;;13.80;99.90;;;;;;5060833;28;38893;-80
2021/10/05 12:08:56;;;;;;;7.72;1.60;;;13.70;99.90;;;;;;5085448;28;37485;-80
2021/10/05 12:11:33;;;;;;;4.60;1.30;;;13.80;99.90;;;;;;5061303;28;40313;-80
2021/10/05 12:14:02;;;;;;;4.90;1.30;;;13.70;99.90;;;;;;5085717;28;38691;-80
2021/10/05 12:16:29;;;;;;;4.85;1.20;;;13.80;99.90;;;;;;5078114;28;48480;-79
2021/10/05 12:18:57;;;;;;;3.22;1.58;;;13.70;99.90;;;;;;5061127;28;35819;-80
2021/10/05 12:21:23;;;;;;;3.03;1.50;;;13.70;99.90;;;;;;5061396;28;39897;-79
2021/10/05 12:23:52;;;;;;;4.82;1.50;;;13.70;99.90;;;;;;5061104;28;39154;-80
2021/10/05 12:26:18;;;;;;;5.22;1.75;;;13.80;99.90;;;;;;5080710;28;39072;-79
2021/10/05 12:29:00;;;;;;;5.65;2.00;;;13.80;99.90;;;;;;5063163;28;38782;-79
2021/10/05 12:31:28;;;;;;;6.80;1.80;;;13.80;99.90;;;;;;5077002;28;38782;-79
2021/10/05 12:34:06;;;;;;;4.47;2.03;;;13.80;99.90;;;;;;5078084;28;40370;-78
2021/10/05 12:36:34;;;;;;;4.32;1.77;;;13.80;99.90;;;;;;5057056;28;47080;-79
2021/10/05 12:39:27;;;;;;;6.88;2.10;;;13.80;99.90;;;;;;5074189;28;37004;-78
2021/10/05 12:41:58;;;;;;;5.68;2.10;;;13.80;99.90;;;;;;5055917;28;46851;-78
2021/10/05 12:44:25;;;;;;;7.20;2.10;;;13.80;99.90;;;;;;5079055;28;38527;-78
2021/10/05 12:46:58;;;;;;;4.53;2.20;;;13.70;99.90;;;;;;5060383;28;38464;-79
2021/10/05 12:49:24;;;;;;;3.22;2.15;;;13.70;99.90;;;;;;5080044;28;37333;-79